Latest Coastal Weather Observations for Cape Jaffa

IDS60701

Issued at 1:21 pm CDT Tuesday 6 December 2016 (issued every 10 minutes, with the page automatically refreshed every 10 minutes)

About coastal observations | Map of coastal stations | Coastal observations for SA | Marine services | Other Formats
Station Details ID: 026095 Name: THE LIMESTONE Lat: -36.97 Lon: 139.72 Height: 17.0 m
Data from the previous 72 hours. | See also: Recent months at Cape Jaffa
Date/Time
CDT
Temp
°C
Wind Pressure Rain since
9am
mm
Weather Cloud Vis
km
Sea
Height
m
Swell
Dir  Spd
kts
Gust
kts
hPa Trend Height
m
Period
s
Dir
06/01:00pm 18.4 WSW 9 14 1016.1 - 0.0 - - - - - - -
06/12:30pm 18.4 W 9 14 1016.3 - 0.0 - - - - - - -
06/12:00pm 17.5 W 7 13 1016.3 - 0.0 - - - - - - -
06/11:30am 17.5 W 7 11 1016.4 - 0.0 - - - - - - -
06/11:00am 17.0 SW 6 9 1016.5 - 0.0 - - - - - - -
06/10:30am 17.3 SW 6 13 1016.5 - 0.0 - - - - - - -
06/10:00am 17.4 WSW 7 12 1016.5 - 0.0 - - - - - - -
06/09:30am 16.4 WSW 8 11 1016.7 - 0.0 - - - - - - -
06/09:00am 15.8 SW 7 11 1016.5 - 0.0 - - - - - - -
06/08:30am 15.7 WSW 5 8 1016.1 - 0.0 - - - - - - -
06/08:00am 14.6 SW 5 7 1015.8 - 0.0 - - - - - - -
06/07:30am 14.2 WSW 5 7 1015.7 - 0.0 - - - - - - -
06/07:00am 13.5 SW 5 6 1015.0 - 0.0 - - - - - - -
06/06:30am 13.0 SW 6 8 1014.7 - 0.0 - - - - - - -
06/06:00am 12.9 SW 7 11 1014.5 - 0.0 - - - - - - -
06/05:30am 13.1 SW 9 13 1014.5 - 0.0 - - - - - - -
06/05:00am 12.7 SW 8 13 1014.7 - 0.0 - - - - - - -
06/04:30am 12.4 SW 8 10 1014.2 - 0.0 - - - - - - -
06/04:00am 12.5 SW 8 10 1014.0 - 0.0 - - - - - - -
06/03:30am 11.8 SW 4 6 1013.7 - 0.0 - - - - - - -
06/03:00am 11.8 SSW 8 9 1013.8 - 0.0 - - - - - - -
06/02:30am 11.1 SW 5 8 1013.8 - 0.0 - - - - - - -
06/02:00am 12.1 SW 6 7 1013.9 - 0.0 - - - - - - -
06/01:30am 11.9 SSW 7 9 1013.9 - 0.0 - - - - - - -
06/01:00am 12.2 SSW 7 9 1014.0 - 0.0 - - - - - - -
06/12:30am 11.7 SSW 6 8 1014.4 - 0.0 - - - - - - -
06/12:00am 12.0 SSW 6 8 1014.5 - 0.0 - - - - - - -
 
Date/Time
CDT
Temp
°C
Wind Pressure Rain since
9am
mm
Weather Cloud Vis
km
Sea
Height
m
Swell
Dir  Spd
kts
Gust
kts
hPa Trend Height
m
Period
s
Dir
05/11:30pm 12.2 SSW 8 10 1014.5 - 0.0 - - - - - - -
05/11:00pm 12.5 SSW 9 11 1014.7 - 0.0 - - - - - - -
05/10:30pm 12.6 SSW 9 11 1015.0 - 0.0 - - - - - - -
05/10:00pm 12.5 SSW 8 11 1014.8 - 0.0 - - - - - - -
05/09:30pm 12.6 SSW 9 11 1014.7 - 0.0 - - - - - - -
05/09:00pm 12.9 SSW 8 11 1014.6 - 0.0 - - - - - - -
05/08:30pm 13.4 SSW 10 13 1013.8 - 0.0 - - - - - - -
05/08:00pm 14.3 SSW 12 14 1014.2 - 0.0 - - - - - - -
05/07:30pm 14.8 SSW 11 14 1014.7 - 0.0 - - - - - - -
05/07:00pm 15.6 SSW 10 13 1014.3 - 0.0 - - - - - - -
05/06:30pm 15.6 SSW 12 14 1014.0 - 0.0 - - - - - - -
05/06:00pm 16.9 SSW 12 17 1013.8 - 0.0 - - - - - - -
05/05:30pm 15.4 SSW 12 15 1014.0 - 0.0 - - - - - - -
05/05:00pm 15.6 SSW 12 15 1014.5 - 0.0 - - - - - - -
05/04:30pm 16.3 SSW 12 15 1014.5 - 0.0 - - - - - - -
05/04:00pm 16.7 SW 11 14 1014.9 - 0.0 - - - - - - -
05/03:30pm 16.8 SW 12 17 1014.4 - 0.0 - - - - - - -
05/03:00pm 18.0 SW 13 17 1014.1 - 0.0 - - - - - - -
05/02:30pm 17.5 SSW 13 18 1013.7 - 0.0 - - - - - - -
05/02:00pm 17.1 SSW 13 17 1013.7 - 0.0 - - - - - - -
05/01:30pm 17.1 SSW 12 16 1014.1 - 0.0 - - - - - - -
05/01:00pm 17.3 SSW 12 16 1014.4 - 0.0 - - - - - - -
05/12:30pm 17.6 SSW 11 15 1014.5 - 0.0 - - - - - - -
05/12:00pm 18.5 SSW 12 15 1014.2 - 0.0 - - - - - - -
05/11:30am 17.9 SSW 12 17 1014.2 - 0.0 - - - - - - -
05/11:00am 17.9 SSW 14 17 1014.2 - 0.0 - - - - - - -
05/10:30am 17.1 SSW 15 20 1014.0 - 0.0 - - - - - - -
05/10:00am 17.2 SSW 14 19 1013.8 - 0.0 - - - - - - -
05/09:30am 17.1 SW 17 21 1013.8 - 0.0 - - - - - - -
05/09:00am 15.6 SW 15 19 1013.6 - 0.2 - - - - - - -
05/08:30am 16.8 SW 14 19 1013.2 - 0.2 - - - - - - -
05/08:00am 15.9 SW 15 20 1012.9 - 0.2 - - - - - - -
05/07:30am 15.4 SW 13 18 1012.5 - 0.2 - - - - - - -
05/07:00am 14.4 SW 15 19 1012.3 - 0.2 - - - - - - -
05/06:30am 14.0 SW 13 16 1012.2 - 0.2 - - - - - - -
05/06:00am 14.4 SW 13 18 1011.7 - 0.2 - - - - - - -
05/05:30am 14.3 WSW 15 20 1011.1 - 0.2 - - - - - - -
05/05:00am 14.4 SW 15 19 1010.4 - 0.2 - - - - - - -
05/04:30am 14.3 WSW 13 17 1009.8 - 0.2 - - - - - - -
05/04:00am 14.8 WSW 11 14 1009.9 - 0.2 - - - - - - -
05/03:30am 15.2 WSW 14 17 1009.5 - 0.2 - - - - - - -
05/03:00am 14.7 WSW 16 21 1009.4 - 0.2 - - - - - - -
05/02:30am 14.6 WSW 13 18 1009.1 - 0.2 - - - - - - -
05/02:00am 14.6 WSW 16 23 1008.8 - 0.2 - - - - - - -
05/01:30am 14.8 WSW 16 21 1008.6 - 0.2 - - - - - - -
05/01:00am 15.1 WSW 16 21 1008.0 - 0.2 - - - - - - -
05/12:30am 15.7 WSW 18 24 1007.8 - 0.2 - - - - - - -
05/12:00am 15.8 WSW 17 24 1007.6 - 0.2 - - - - - - -
 
Date/Time
CDT
Temp
°C
Wind Pressure Rain since
9am
mm
Weather Cloud Vis
km
Sea
Height
m
Swell
Dir  Spd
kts
Gust
kts
hPa Trend Height
m
Period
s
Dir
04/11:30pm 16.1 WSW 15 20 1007.1 - 0.2 - - - - - - -
04/11:00pm 16.6 WSW 18 24 1006.4 - 0.2 - - - - - - -
04/10:30pm 17.1 WSW 19 25 1005.8 - 0.2 - - - - - - -
04/10:00pm 17.9 W 18 25 1005.3 - 0.2 - - - - - - -
04/09:56pm 18.1 W 18 25 1005.3 - 0.2 - - - - - - -
04/09:30pm 19.4 WNW 11 15 1004.6 - 0.2 - - - - - - -
04/09:00pm 20.2 WNW 18 26 1004.2 - 0.2 - - - - - - -
04/08:43pm 21.8 NNW 17 29 1004.0 - 0.2 - - - - - - -
04/08:30pm 21.2 NNW 13 20 1002.8 - 0.2 - - - - - - -
04/08:00pm 21.4 N 13 17 1002.4 - 0.2 - - - - - - -
04/07:30pm 22.4 N 15 19 1001.7 - 0.2 - - - - - - -
04/07:00pm 23.1 N 15 20 1001.5 - 0.2 - - - - - - -
04/06:30pm 24.0 N 16 21 1001.6 - 0.2 - - - - - - -
04/06:00pm 24.7 NNE 18 23 1001.3 - 0.2 - - - - - - -
04/05:30pm 24.3 N 17 23 1001.4 - 0.2 - - - - - - -
04/05:00pm 24.1 NNE 17 23 1001.7 - 0.2 - - - - - - -
04/04:30pm 24.2 NNE 19 27 1002.1 - 0.2 - - - - - - -
04/04:00pm 23.4 N 15 20 1002.8 - 0.2 - - - - - - -
04/03:30pm 23.4 NNE 18 23 1003.3 - 0.2 - - - - - - -
04/03:00pm 20.8 N 19 28 1004.1 - 0.2 Recent precip. - - - - - -
04/02:30pm 19.9 N 20 25 1004.9 - 0.0 - - - - - - -
04/02:00pm 19.2 N 18 24 1005.9 - 0.0 - - - - - - -
04/01:30pm 20.6 N 25 33 1005.3 - 0.0 - - - - - - -
04/01:00pm 21.7 N 20 31 1005.6 - 0.0 - - - - - - -
04/12:59pm 21.7 N 20 31 1005.6 - 0.0 - - - - - - -
04/12:30pm 22.5 N 20 25 1005.7 - 0.0 - - - - - - -
04/12:00pm 22.2 N 16 21 1005.6 - 0.0 - - - - - - -
04/11:30am 22.5 N 15 20 1005.5 - 0.0 - - - - - - -
04/11:00am 21.3 N 15 23 1006.0 - 0.0 - - - - - - -
04/10:30am 20.8 N 13 17 1006.4 - 0.0 - - - - - - -
04/10:00am 22.4 N 13 19 1006.3 - 0.0 - - - - - - -
04/09:30am 22.2 NE 9 14 1005.9 - 0.0 - - - - - - -
04/09:00am 19.3 ENE 7 9 1006.1 - 0.0 - - - - - - -
04/08:30am 17.6 NE 8 9 1006.5 - 0.0 - - - - - - -
04/08:00am 16.4 ENE 8 11 1006.6 - 0.0 - - - - - - -
04/07:30am 14.2 ENE 7 10 1006.5 - 0.0 - - - - - - -
04/07:00am 12.7 ENE 8 10 1007.0 - 0.0 - - - - - - -
04/06:30am 12.1 ENE 8 10 1007.3 - 0.0 - - - - - - -
04/06:00am 11.6 E 7 9 1007.4 - 0.0 - - - - - - -
04/05:30am 11.2 ESE 7 9 1007.3 - 0.0 - - - - - - -
04/05:00am 11.1 E 8 10 1007.6 - 0.0 - - - - - - -
04/04:30am 11.3 E 8 9 1007.6 - 0.0 - - - - - - -
04/04:00am 11.3 ESE 7 9 1008.0 - 0.0 - - - - - - -
04/03:30am 11.3 E 7 9 1008.5 - 0.0 - - - - - - -
04/03:00am 11.7 E 7 10 1008.9 - 0.0 - - - - - - -
04/02:30am 11.7 ESE 6 8 1009.0 - 0.0 - - - - - - -
04/02:00am 11.5 ESE 6 7 1009.2 - 0.0 - - - - - - -
04/01:30am 11.7 ESE 6 8 1009.6 - 0.0 - - - - - - -
04/01:00am 11.9 ESE 6 8 1010.0 - 0.0 - - - - - - -
04/12:30am 11.3 SE 5 6 1010.5 - 0.0 - - - - - - -
04/12:00am 11.4 SSE 5 7 1011.1 - 0.0 - - - - - - -
 
Date/Time
CDT
Temp
°C
Wind Pressure Rain since
9am
mm
Weather Cloud Vis
km
Sea
Height
m
Swell
Dir  Spd
kts
Gust
kts
hPa Trend Height
m
Period
s
Dir
03/11:30pm 11.9 SE 6 8 1011.2 - 0.0 - - - - - - -
03/11:00pm 12.4 SSE 6 8 1011.8 - 0.0 - - - - - - -
03/10:30pm 12.9 SSE 7 10 1011.8 - 0.0 - - - - - - -
03/10:00pm 13.5 SSE 8 10 1012.2 - 0.0 - - - - - - -
03/09:30pm 14.1 SSE 9 13 1012.1 - 0.0 - - - - - - -
03/09:00pm 14.1 SSE 8 12 1011.9 - 0.0 - - - - - - -
03/08:30pm 15.0 SSE 10 13 1011.9 - 0.0 - - - - - - -
03/08:00pm 15.8 S 10 13 1012.0 - 0.0 - - - - - - -
03/07:30pm 16.8 S 12 16 1011.8 - 0.0 - - - - - - -
03/07:00pm 17.2 S 14 18 1011.8 - 0.0 - - - - - - -
03/06:30pm 18.4 S 13 16 1011.6 - 0.0 - - - - - - -
03/06:00pm 18.4 S 14 18 1011.8 - 0.0 - - - - - - -
03/05:30pm 18.1 SSW 16 19 1012.0 - 0.0 - - - - - - -
03/05:00pm 18.1 SSW 16 21 1012.7 - 0.0 - - - - - - -
03/04:30pm 18.2 SSW 16 19 1013.0 - 0.0 - - - - - - -
03/04:00pm 18.4 SSW 16 20 1013.0 - 0.0 - - - - - - -
03/03:30pm 18.3 SSW 16 20 1013.4 - 0.0 - - - - - - -
03/03:00pm 19.0 SSW 14 18 1013.5 - 0.0 - - - - - - -
03/02:30pm 18.6 SSW 14 17 1013.7 - 0.0 - - - - - - -
03/02:00pm 18.8 SSW 13 17 1014.0 - 0.0 - - - - - - -
03/01:30pm 18.7 SW 11 14 1014.5 - 0.0 - - - - - - -

Other Formats:

Comma delimited format used in spreadsheet applications
http://www.bom.gov.au/fwo/IDS60701/IDS60701.94813.axf

JavaScript Object Notation format (JSON) in row-major order
http://www.bom.gov.au/fwo/IDS60701/IDS60701.94813.json